sensor_id;sensor_type;location;lat;lon;timestamp;pressure;altitude;pressure_sealevel;temperature;humidity
58927;BME280;44712;52.530;9.760;2023-02-28T22:13:56;102614.13;;;-2.79;92.55
58927;BME280;44712;52.530;9.760;2023-02-28T22:16:29;102612.25;;;-2.80;93.72
58927;BME280;44712;52.530;9.760;2023-02-28T22:19:15;102599.81;;;-2.81;94.92
58927;BME280;44712;52.530;9.760;2023-02-28T22:21:42;102599.00;;;-2.80;96.28
58927;BME280;44712;52.530;9.760;2023-02-28T22:24:10;102598.91;;;-2.81;95.57
58927;BME280;44712;52.530;9.760;2023-02-28T22:26:38;102598.91;;;-2.81;96.06
58927;BME280;44712;52.530;9.760;2023-02-28T22:29:05;102596.16;;;-2.83;96.25
58927;BME280;44712;52.530;9.760;2023-02-28T22:31:34;102595.91;;;-2.86;95.95
58927;BME280;44712;52.530;9.760;2023-02-28T22:34:06;102594.31;;;-2.84;96.58
58927;BME280;44712;52.530;9.760;2023-02-28T22:36:33;102599.59;;;-2.84;96.72
58927;BME280;44712;52.530;9.760;2023-02-28T22:39:00;102605.59;;;-2.87;96.21
58927;BME280;44712;52.530;9.760;2023-02-28T22:41:27;102602.06;;;-2.87;96.40
58927;BME280;44712;52.530;9.760;2023-02-28T22:43:58;102607.22;;;-2.89;96.58
58927;BME280;44712;52.530;9.760;2023-02-28T22:46:26;102607.94;;;-2.91;95.93
58927;BME280;44712;52.530;9.760;2023-02-28T22:48:54;102613.25;;;-2.91;95.94
58927;BME280;44712;52.530;9.760;2023-02-28T22:51:23;102597.78;;;-2.97;95.31
58927;BME280;44712;52.530;9.760;2023-02-28T22:53:51;102600.34;;;-2.98;95.38
58927;BME280;44712;52.530;9.760;2023-02-28T22:56:20;102596.44;;;-3.04;95.23
58927;BME280;44712;52.530;9.760;2023-02-28T22:58:51;102599.09;;;-3.04;96.04
58927;BME280;44712;52.530;9.760;2023-02-28T23:01:22;102613.28;;;-3.03;95.73
58927;BME280;44712;52.530;9.760;2023-02-28T23:03:49;102608.78;;;-3.04;96.08
58927;BME280;44712;52.530;9.760;2023-02-28T23:06:33;102606.81;;;-3.07;95.70
58927;BME280;44712;52.530;9.760;2023-02-28T23:09:04;102604.97;;;-3.08;96.38
58927;BME280;44712;52.530;9.760;2023-02-28T23:11:33;102619.88;;;-3.10;96.02
58927;BME280;44712;52.530;9.760;2023-02-28T23:14:00;102615.94;;;-3.15;96.07
58927;BME280;44712;52.530;9.760;2023-02-28T23:16:39;102618.84;;;-3.24;94.90
58927;BME280;44712;52.530;9.760;2023-02-28T23:19:09;102605.47;;;-3.25;96.00
58927;BME280;44712;52.530;9.760;2023-02-28T23:21:37;102615.88;;;-3.28;96.14
58927;BME280;44712;52.530;9.760;2023-02-28T23:24:06;102614.81;;;-3.30;96.39
58927;BME280;44712;52.530;9.760;2023-02-28T23:26:38;102617.03;;;-3.37;96.03
58927;BME280;44712;52.530;9.760;2023-02-28T23:29:05;102616.78;;;-3.40;96.75
58927;BME280;44712;52.530;9.760;2023-02-28T23:31:32;102613.34;;;-3.39;97.47
58927;BME280;44712;52.530;9.760;2023-02-28T23:33:59;102614.13;;;-3.40;97.21
58927;BME280;44712;52.530;9.760;2023-02-28T23:36:27;102600.69;;;-3.43;97.17
58927;BME280;44712;52.530;9.760;2023-02-28T23:38:55;102598.03;;;-3.43;97.54
58927;BME280;44712;52.530;9.760;2023-02-28T23:41:22;102590.88;;;-3.44;98.22
58927;BME280;44712;52.530;9.760;2023-02-28T23:43:50;102598.13;;;-3.41;97.72
58927;BME280;44712;52.530;9.760;2023-02-28T23:46:18;102611.28;;;-3.43;97.96
58927;BME280;44712;52.530;9.760;2023-02-28T23:48:46;102609.91;;;-3.49;97.03
58927;BME280;44712;52.530;9.760;2023-02-28T23:51:19;102606.56;;;-3.47;98.21
58927;BME280;44712;52.530;9.760;2023-02-28T23:53:48;102613.34;;;-3.50;97.83
58927;BME280;44712;52.530;9.760;2023-02-28T23:56:18;102614.03;;;-3.53;97.75
58927;BME280;44712;52.530;9.760;2023-02-28T23:58:45;102606.09;;;-3.53;97.88
